Terminal Aerodrome Forecast
Issued by NWS North Platte, NE

Home | Current Version | Previous Version | Text Only | Print | Product List | Glossary On
Versions: 1 2 3 4 5 6 7 8 9 10 11 12 13 14 15
000
FTUS43 KLBF 220400 AAA
TAFVTN
TAF AMD
KVTN 220411Z 2204/2224 22004KT P6SM OVC090
     FM220900 30012G24KT 3SM -RA BR BKN008 OVC035
     FM221200 30014G25KT 6SM -SN BKN025 OVC100
     FM221500 32021G32KT 1SM -SN BLSN OVC020=

USA.gov is the U.S. government's official web portal to all federal, state and local government web resources and services.